createdAt,value
2023-04-10T00:01:37.099Z,41.10
2023-04-10T00:04:53.478Z,41.00
2023-04-10T00:08:09.966Z,40.88
2023-04-10T00:11:26.380Z,40.93
2023-04-10T00:14:42.722Z,41.63
2023-04-10T00:17:59.831Z,41.20
2023-04-10T00:21:16.856Z,42.45
2023-04-10T00:24:33.282Z,39.93
2023-04-10T00:27:49.604Z,41.08
2023-04-10T00:31:08.323Z,41.23
2023-04-10T00:34:24.618Z,43.58
2023-04-10T00:37:42.803Z,43.40
2023-04-10T00:40:59.117Z,42.85
2023-04-10T00:44:15.346Z,43.68
2023-04-10T00:47:31.919Z,44.75
2023-04-10T00:50:48.484Z,41.93
2023-04-10T00:54:04.884Z,42.30
2023-04-10T00:57:21.486Z,43.55
2023-04-10T01:00:38.384Z,41.08
2023-04-10T01:03:55.472Z,46.08
2023-04-10T01:07:21.324Z,45.50
2023-04-10T01:10:42.762Z,44.98
2023-04-10T01:14:07.019Z,45.55
2023-04-10T01:17:28.892Z,47.78
2023-04-10T01:20:48.330Z,48.65
2023-04-10T01:24:21.803Z,48.35
2023-04-10T01:27:49.357Z,48.55
2023-04-10T01:31:09.224Z,47.78
2023-04-10T01:34:30.603Z,50.00
2023-04-10T01:37:49.944Z,48.08
2023-04-10T01:41:08.146Z,49.90
2023-04-10T01:44:29.657Z,51.18
2023-04-10T01:47:46.619Z,54.05
2023-04-10T01:51:06.159Z,53.48
2023-04-10T01:57:37.333Z,51.60
2023-04-10T02:00:53.942Z,55.75
2023-04-10T02:04:12.234Z,54.00
2023-04-10T02:07:33.147Z,52.13
2023-04-10T02:10:55.942Z,54.25
2023-04-10T02:14:17.394Z,54.05
2023-04-10T02:17:38.181Z,53.98
2023-04-10T02:20:55.237Z,57.18
2023-04-10T02:24:11.843Z,58.83
2023-04-10T02:27:37.834Z,57.13
2023-04-10T02:30:54.340Z,59.10
2023-04-10T02:34:10.613Z,57.20
2023-04-10T02:37:27.266Z,57.08
2023-04-10T02:40:43.761Z,59.33
2023-04-10T02:44:03.706Z,57.98
2023-04-10T02:47:20.311Z,57.93
2023-04-10T02:50:37.360Z,59.43
2023-04-10T02:53:54.211Z,57.35
2023-04-10T02:57:12.681Z,59.25
2023-04-10T03:00:30.893Z,60.80
2023-04-10T03:03:51.647Z,62.93
2023-04-10T03:07:10.194Z,61.27
2023-04-10T03:10:27.146Z,60.85
2023-04-10T03:13:43.688Z,60.03
2023-04-10T03:16:59.945Z,60.10
2023-04-10T03:20:20.121Z,63.23
2023-04-10T03:23:38.000Z,60.53
2023-04-10T03:26:54.662Z,64.10
2023-04-10T03:30:12.549Z,62.13
2023-04-10T03:33:29.762Z,61.63
2023-04-10T03:36:47.735Z,59.55
2023-04-10T03:40:04.224Z,61.03
2023-04-10T03:43:20.815Z,61.65
2023-04-10T03:46:38.323Z,60.65
2023-04-10T03:49:55.518Z,61.08
2023-04-10T03:53:12.224Z,62.85
2023-04-10T03:56:29.399Z,62.43
2023-04-10T03:59:47.340Z,59.27
2023-04-10T04:03:06.016Z,59.73
2023-04-10T04:06:40.591Z,62.95
2023-04-10T04:09:58.543Z,61.68
2023-04-10T04:13:32.584Z,61.03
2023-04-10T04:16:56.395Z,54.35
2023-04-10T04:20:27.039Z,61.78
2023-04-10T04:24:01.480Z,56.10
2023-04-10T04:27:23.551Z,59.03
2023-04-10T04:34:06.252Z,55.90
2023-04-10T04:37:33.611Z,59.15
2023-04-10T04:40:50.170Z,57.03
2023-04-10T04:44:26.106Z,58.03
2023-04-10T04:47:43.694Z,57.75
2023-04-10T04:51:01.075Z,59.38
2023-04-10T04:54:39.122Z,62.15
2023-04-10T04:58:01.303Z,62.38
2023-04-10T05:10:27.294Z,61.45
2023-04-10T05:26:14.614Z,62.70
2023-04-10T05:29:54.902Z,60.23
2023-04-10T05:33:29.315Z,60.68
2023-04-10T05:36:59.586Z,55.25
2023-04-10T05:40:36.794Z,60.13
2023-04-10T05:44:13.679Z,59.05
2023-04-10T05:47:50.497Z,55.38
2023-04-10T05:51:08.666Z,57.58
2023-04-10T05:54:27.425Z,54.53
2023-04-10T05:58:03.924Z,53.45
2023-04-10T06:01:22.046Z,51.18
2023-04-10T06:04:40.257Z,50.18
2023-04-10T06:07:58.324Z,48.18
2023-04-10T06:11:15.610Z,47.60
2023-04-10T06:14:33.624Z,46.83
2023-04-10T06:17:54.884Z,44.35
2023-04-10T06:21:11.863Z,43.18
2023-04-10T06:24:28.219Z,46.28
2023-04-10T06:27:45.434Z,43.35
2023-04-10T06:31:04.088Z,43.28
2023-04-10T06:34:22.266Z,42.75
2023-04-10T06:37:41.007Z,41.65
2023-04-10T06:40:57.393Z,43.88
2023-04-10T06:44:13.859Z,43.35
2023-04-10T06:47:30.358Z,41.70
2023-04-10T06:54:03.317Z,41.63
2023-04-10T06:57:19.950Z,41.63
2023-04-10T07:00:37.314Z,41.63
2023-04-10T07:03:54.080Z,41.20
2023-04-10T07:07:12.711Z,43.45
2023-04-10T07:10:29.253Z,43.57
2023-04-10T07:13:45.647Z,43.25
2023-04-10T07:17:02.058Z,42.40
2023-04-10T07:20:20.206Z,43.48
2023-04-10T07:23:36.857Z,44.48
2023-04-10T07:26:53.545Z,41.15
2023-04-10T07:30:12.275Z,42.13
2023-04-10T07:33:29.031Z,43.10
2023-04-10T07:36:46.142Z,45.83
2023-04-10T07:40:03.398Z,46.03
2023-04-10T07:43:20.280Z,44.63
2023-04-10T07:46:37.195Z,43.80
2023-04-10T07:49:53.727Z,43.68
2023-04-10T07:53:10.323Z,46.80
2023-04-10T07:56:30.271Z,44.85
2023-04-10T07:59:46.858Z,46.30
2023-04-10T08:03:03.551Z,43.93
2023-04-10T08:06:20.847Z,45.73
2023-04-10T08:09:37.323Z,43.35
2023-04-10T08:12:53.820Z,44.55
2023-04-10T08:16:11.465Z,45.53
2023-04-10T08:19:27.911Z,44.98
2023-04-10T08:22:49.595Z,45.18
2023-04-10T08:26:06.441Z,42.78
2023-04-10T08:32:40.234Z,45.28
2023-04-10T08:35:59.303Z,42.85
2023-04-10T08:39:15.816Z,44.68
2023-04-10T08:42:34.511Z,44.28
2023-04-10T08:45:52.323Z,45.83
2023-04-10T08:49:11.595Z,71.18
2023-04-10T08:52:32.189Z,49.83
2023-04-10T08:55:49.946Z,43.95
2023-04-10T08:59:07.382Z,46.98
2023-04-10T09:02:24.324Z,44.58
2023-04-10T09:05:43.432Z,47.70
2023-04-10T09:12:18.195Z,48.03
2023-04-10T09:15:35.198Z,47.83
2023-04-10T09:18:57.601Z,50.05
2023-04-10T09:22:14.520Z,46.30
2023-04-10T09:25:42.699Z,49.03
2023-04-10T09:29:11.681Z,51.35
2023-04-10T09:32:47.720Z,51.53
2023-04-10T09:36:06.408Z,49.33
2023-04-10T09:39:22.928Z,50.15
2023-04-10T09:42:45.155Z,69.98
2023-04-10T09:46:04.937Z,63.65
2023-04-10T09:49:21.701Z,54.70
2023-04-10T09:52:40.183Z,54.90
2023-04-10T09:55:57.704Z,54.23
2023-04-10T09:59:15.103Z,52.65
2023-04-10T10:02:34.933Z,57.65
2023-04-10T10:05:53.639Z,52.30
2023-04-10T10:09:11.900Z,51.78
2023-04-10T10:12:32.747Z,54.40
2023-04-10T10:15:56.688Z,55.65
2023-04-10T10:19:20.799Z,56.05
2023-04-10T10:22:38.607Z,58.23
2023-04-10T10:25:56.899Z,55.40
2023-04-10T10:29:18.408Z,56.83
2023-04-10T10:32:36.202Z,61.73
2023-04-10T10:35:54.280Z,58.58
2023-04-10T10:39:28.595Z,58.83
2023-04-10T10:42:51.405Z,57.18
2023-04-10T10:46:13.290Z,56.90
2023-04-10T10:49:30.024Z,57.45
2023-04-10T10:52:57.698Z,55.63
2023-04-10T10:56:44.032Z,53.75
2023-04-10T11:00:07.008Z,51.93
2023-04-10T11:03:42.909Z,52.00
2023-04-10T11:07:05.202Z,58.05
2023-04-10T11:10:21.923Z,56.95
2023-04-10T11:13:39.546Z,88.95
2023-04-10T11:16:57.161Z,63.68
2023-04-10T11:20:15.536Z,53.33
2023-04-10T11:23:33.033Z,53.47
2023-04-10T11:26:50.501Z,54.15
2023-04-10T11:30:07.572Z,55.48
2023-04-10T11:33:27.523Z,53.20
2023-04-10T11:36:47.008Z,51.15
2023-04-10T11:40:17.532Z,50.15
2023-04-10T11:43:34.624Z,50.70
2023-04-10T11:46:53.428Z,50.75
2023-04-10T11:50:10.615Z,50.50
2023-04-10T11:53:30.965Z,52.38
2023-04-10T11:56:49.476Z,50.70
2023-04-10T12:00:06.012Z,51.77
2023-04-10T12:03:21.610Z,50.30
2023-04-10T12:06:40.626Z,51.58
2023-04-10T12:10:05.461Z,47.58
2023-04-10T12:13:35.062Z,46.73
2023-04-10T12:16:51.893Z,45.10
2023-04-10T12:20:08.605Z,46.48
2023-04-10T12:23:25.718Z,48.80
2023-04-10T12:26:42.393Z,45.95
2023-04-10T12:30:01.558Z,45.90
2023-04-10T12:36:36.312Z,48.28
2023-04-10T12:39:52.801Z,49.33
2023-04-10T12:43:09.248Z,46.33
2023-04-10T12:46:37.934Z,44.33
2023-04-10T12:50:16.789Z,40.85
2023-04-10T12:53:34.204Z,48.15
2023-04-10T12:56:54.993Z,44.28
2023-04-10T13:00:13.809Z,42.23
2023-04-10T13:03:30.830Z,52.53
2023-04-10T13:06:54.549Z,43.30
2023-04-10T13:10:11.913Z,45.53
2023-04-10T13:13:28.708Z,44.18
2023-04-10T13:16:45.215Z,44.75
2023-04-10T13:20:01.963Z,44.25
2023-04-10T13:23:18.681Z,45.93
2023-04-10T13:26:35.195Z,45.23
2023-04-10T13:29:53.615Z,43.73
2023-04-10T13:33:10.646Z,45.08
2023-04-10T13:36:28.831Z,44.58
2023-04-10T13:39:45.599Z,53.33
2023-04-10T13:43:01.956Z,41.75
2023-04-10T13:46:18.846Z,43.45
2023-04-10T13:49:35.689Z,42.23
2023-04-10T13:52:53.606Z,50.65
2023-04-10T13:56:11.769Z,43.90
2023-04-10T13:59:28.670Z,40.65
2023-04-10T14:02:45.487Z,41.25
2023-04-10T14:06:02.900Z,42.45
2023-04-10T14:09:20.428Z,43.03
2023-04-10T14:12:37.893Z,43.10
2023-04-10T14:15:54.745Z,41.70
2023-04-10T14:19:11.227Z,43.23
2023-04-10T14:22:28.533Z,44.13
2023-04-10T14:25:45.718Z,43.05
2023-04-10T14:29:03.669Z,44.05
2023-04-10T14:32:20.323Z,42.63
2023-04-10T14:35:36.827Z,42.53
2023-04-10T14:38:53.577Z,40.93
2023-04-10T14:42:11.548Z,39.25
2023-04-10T14:45:28.776Z,39.18
2023-04-10T14:48:45.354Z,38.60
2023-04-10T14:52:01.850Z,42.28
2023-04-10T14:55:19.700Z,41.80
2023-04-10T14:58:36.332Z,43.35
2023-04-10T15:01:54.862Z,44.08
2023-04-10T15:05:12.317Z,44.80
2023-04-10T15:08:28.855Z,44.20
2023-04-10T15:11:45.614Z,42.58
2023-04-10T15:15:04.677Z,46.13
2023-04-10T15:18:21.725Z,47.45
2023-04-10T15:21:40.788Z,43.08
2023-04-10T15:24:59.138Z,42.60
2023-04-10T15:28:16.311Z,45.05
2023-04-10T15:31:33.351Z,43.90
2023-04-10T15:34:50.010Z,43.38
2023-04-10T15:38:06.834Z,45.78
2023-04-10T15:41:31.274Z,44.00
2023-04-10T15:44:49.082Z,45.10
2023-04-10T15:51:59.507Z,44.03
2023-04-10T15:55:18.052Z,45.75
2023-04-10T15:58:34.765Z,45.35
2023-04-10T16:01:52.197Z,44.18
2023-04-10T16:05:09.560Z,43.35
2023-04-10T16:08:27.238Z,44.48
2023-04-10T16:11:44.436Z,46.03
2023-04-10T16:15:00.954Z,43.43
2023-04-10T16:18:18.989Z,46.08
2023-04-10T16:21:35.674Z,45.55
2023-04-10T16:24:52.064Z,46.53
2023-04-10T16:28:09.057Z,45.70
2023-04-10T16:31:26.873Z,57.75
2023-04-10T16:34:44.839Z,58.65
2023-04-10T16:38:01.902Z,46.58
2023-04-10T16:41:19.227Z,46.13
2023-04-10T16:44:37.569Z,44.70
2023-04-10T16:47:54.554Z,44.30
2023-04-10T16:51:12.418Z,46.88
2023-04-10T16:54:29.374Z,46.60
2023-04-10T16:57:47.270Z,46.15
2023-04-10T17:01:04.259Z,45.13
2023-04-10T17:04:23.899Z,46.20
2023-04-10T17:07:43.668Z,43.88
2023-04-10T17:11:01.378Z,43.70
2023-04-10T17:14:18.689Z,88.58
2023-04-10T17:17:35.552Z,47.08
2023-04-10T17:20:53.891Z,41.65
2023-04-10T17:24:11.058Z,42.15
2023-04-10T17:27:28.493Z,40.98
2023-04-10T17:30:45.445Z,40.53
2023-04-10T17:34:02.593Z,40.50
2023-04-10T17:37:18.968Z,39.73
2023-04-10T17:40:37.324Z,43.88
2023-04-10T17:43:54.117Z,22.43
2023-04-10T17:47:11.186Z,7.15
2023-04-10T17:50:29.544Z,7.95
2023-04-10T17:53:47.123Z,4.75
2023-04-10T17:57:05.219Z,12.40
2023-04-10T18:00:25.111Z,7.68
2023-04-10T18:03:42.277Z,5.73
2023-04-10T18:06:59.410Z,6.73
2023-04-10T18:10:18.103Z,6.25
2023-04-10T18:13:35.094Z,7.50
2023-04-10T18:16:52.570Z,6.98
2023-04-10T18:20:09.594Z,6.80
2023-04-10T18:23:29.302Z,6.35
2023-04-10T18:30:00.137Z,6.95
2023-04-10T18:33:18.615Z,7.60
2023-04-10T18:36:35.147Z,7.85
2023-04-10T18:39:54.278Z,7.45
2023-04-10T18:43:12.415Z,7.03
2023-04-10T18:46:29.012Z,7.10
2023-04-10T18:49:46.101Z,6.50
2023-04-10T18:53:03.179Z,6.80
2023-04-10T18:56:20.821Z,7.00
2023-04-10T18:59:38.233Z,7.05
2023-04-10T19:02:58.328Z,7.08
2023-04-10T19:06:18.421Z,6.30
2023-04-10T19:09:35.104Z,6.03
2023-04-10T19:12:53.331Z,5.88
2023-04-10T19:16:13.571Z,8.53
2023-04-10T19:19:30.097Z,7.65
2023-04-10T19:22:47.254Z,6.95
2023-04-10T19:26:04.834Z,6.80
2023-04-10T19:29:21.300Z,7.90
2023-04-10T19:32:38.558Z,8.10
2023-04-10T19:35:55.352Z,8.55
2023-04-10T19:39:12.016Z,8.18
2023-04-10T19:42:29.324Z,8.23
2023-04-10T19:45:47.812Z,8.48
2023-04-10T19:49:04.810Z,7.95
2023-04-10T19:52:21.710Z,7.95
2023-04-10T19:55:38.558Z,9.40
2023-04-10T19:58:55.462Z,9.03
2023-04-10T20:02:13.234Z,10.85
2023-04-10T20:05:33.286Z,9.80
2023-04-10T20:08:50.034Z,9.20
2023-04-10T20:12:06.520Z,9.58
2023-04-10T20:15:23.343Z,9.80
2023-04-10T20:18:42.182Z,9.15
2023-04-10T20:22:00.757Z,11.73
2023-04-10T20:25:18.213Z,9.73
2023-04-10T20:28:34.949Z,9.15
2023-04-10T20:31:52.812Z,9.55
2023-04-10T20:35:09.459Z,10.38
2023-04-10T20:38:27.677Z,10.58
2023-04-10T20:41:44.351Z,9.33
2023-04-10T20:45:01.238Z,10.05
2023-04-10T20:48:19.045Z,10.80
2023-04-10T20:51:37.420Z,11.48
2023-04-10T20:54:54.238Z,10.88
2023-04-10T20:58:11.222Z,10.98
2023-04-10T21:01:27.773Z,10.73
2023-04-10T21:04:44.770Z,9.88
2023-04-10T21:08:01.439Z,10.63
2023-04-10T21:11:20.046Z,11.45
2023-04-10T21:14:36.697Z,11.93
2023-04-10T21:17:54.284Z,11.08
2023-04-10T21:21:11.507Z,11.20
2023-04-10T21:24:28.887Z,11.00
2023-04-10T21:27:45.395Z,11.85
2023-04-10T21:31:02.408Z,11.95
2023-04-10T21:34:18.936Z,10.48
2023-04-10T21:37:35.373Z,11.13
2023-04-10T21:40:58.257Z,11.28
2023-04-10T21:44:14.902Z,11.88
2023-04-10T21:47:31.313Z,11.65
2023-04-10T21:50:48.125Z,12.10
2023-04-10T21:54:04.510Z,11.75
2023-04-10T21:57:21.431Z,11.68
2023-04-10T22:00:37.928Z,12.03
2023-04-10T22:03:54.885Z,11.63
2023-04-10T22:07:13.166Z,12.63
2023-04-10T22:10:29.489Z,12.45
2023-04-10T22:13:46.039Z,12.88
2023-04-10T22:17:03.795Z,12.15
2023-04-10T22:20:20.969Z,13.60
2023-04-10T22:23:37.478Z,13.68
2023-04-10T22:26:53.923Z,12.83
2023-04-10T22:30:10.944Z,13.35
2023-04-10T22:33:29.685Z,12.80
2023-04-10T22:36:46.195Z,14.03
2023-04-10T22:40:02.713Z,12.90
2023-04-10T22:43:20.429Z,13.28
2023-04-10T22:46:37.242Z,13.55
2023-04-10T22:49:54.085Z,13.35
2023-04-10T22:53:10.567Z,14.13
2023-04-10T22:56:30.379Z,14.78
2023-04-10T22:59:47.183Z,14.20
2023-04-10T23:03:03.685Z,12.73
2023-04-10T23:06:20.788Z,13.88
2023-04-10T23:09:37.906Z,14.15
2023-04-10T23:12:54.404Z,14.18
2023-04-10T23:16:11.078Z,13.43
2023-04-10T23:19:29.028Z,14.03
2023-04-10T23:22:45.412Z,13.73
2023-04-10T23:26:12.282Z,12.90
2023-04-10T23:29:29.106Z,12.85
2023-04-10T23:32:45.777Z,12.53
2023-04-10T23:36:03.310Z,11.58
2023-04-10T23:39:21.219Z,10.53
2023-04-10T23:42:37.575Z,11.10
2023-04-10T23:45:54.190Z,11.15
2023-04-10T23:49:10.647Z,10.03
2023-04-10T23:52:27.198Z,10.28
2023-04-10T23:55:44.318Z,9.70
2023-04-10T23:59:01.330Z,10.65
